createdAt,value
2023-03-19T00:01:41.274Z,14.85
2023-03-19T00:04:29.814Z,11.40
2023-03-19T00:07:17.957Z,9.33
2023-03-19T00:10:06.213Z,6.60
2023-03-19T00:12:55.053Z,6.70
2023-03-19T00:15:42.999Z,6.88
2023-03-19T00:18:30.731Z,6.80
2023-03-19T00:21:18.485Z,6.47
2023-03-19T00:24:07.222Z,6.97
2023-03-19T00:26:55.061Z,6.25
2023-03-19T00:29:43.870Z,5.82
2023-03-19T00:32:33.607Z,6.77
2023-03-19T00:35:21.128Z,8.05
2023-03-19T00:38:08.241Z,6.03
2023-03-19T00:40:55.672Z,6.95
2023-03-19T00:43:42.795Z,6.60
2023-03-19T00:46:31.505Z,7.60
2023-03-19T00:49:18.983Z,7.63
2023-03-19T00:52:06.365Z,6.47
2023-03-19T00:54:53.733Z,6.18
2023-03-19T00:57:41.722Z,5.90
2023-03-19T01:00:29.298Z,5.80
2023-03-19T01:03:18.556Z,5.80
2023-03-19T01:06:06.197Z,6.47
2023-03-19T01:08:53.518Z,7.47
2023-03-19T01:11:41.161Z,5.80
2023-03-19T01:14:29.091Z,5.80
2023-03-19T01:17:16.311Z,6.80
2023-03-19T01:20:05.066Z,6.00
2023-03-19T01:22:52.599Z,5.55
2023-03-19T01:25:40.952Z,6.93
2023-03-19T01:28:28.105Z,5.93
2023-03-19T01:31:15.811Z,5.78
2023-03-19T01:34:19.715Z,6.90
2023-03-19T01:37:12.786Z,6.43
2023-03-19T01:40:01.242Z,6.45
2023-03-19T01:42:57.886Z,6.20
2023-03-19T01:46:03.695Z,7.35
2023-03-19T01:49:09.776Z,6.00
2023-03-19T01:51:57.713Z,6.35
2023-03-19T01:55:00.603Z,6.35
2023-03-19T01:58:07.794Z,6.30
2023-03-19T02:01:16.100Z,6.50
2023-03-19T02:04:08.764Z,7.00
2023-03-19T02:06:58.007Z,6.65
2023-03-19T02:09:45.670Z,6.60
2023-03-19T02:12:34.734Z,6.53
2023-03-19T02:15:22.056Z,6.95
2023-03-19T02:18:10.202Z,7.90
2023-03-19T02:21:04.604Z,7.40
2023-03-19T02:24:00.930Z,7.40
2023-03-19T02:27:10.359Z,7.53
2023-03-19T02:30:02.978Z,7.53
2023-03-19T02:32:50.999Z,7.82
2023-03-19T02:35:39.137Z,8.10
2023-03-19T02:38:28.645Z,8.82
2023-03-19T02:41:15.978Z,8.40
2023-03-19T02:44:05.980Z,8.13
2023-03-19T02:46:53.356Z,8.70
2023-03-19T02:49:40.753Z,9.10
2023-03-19T02:52:28.185Z,9.73
2023-03-19T02:55:15.587Z,9.50
2023-03-19T02:58:02.809Z,10.38
2023-03-19T03:00:52.212Z,10.98
2023-03-19T03:03:40.438Z,11.13
2023-03-19T03:06:28.372Z,11.32
2023-03-19T03:09:17.172Z,11.30
2023-03-19T03:12:05.193Z,11.40
2023-03-19T03:14:52.189Z,11.83
2023-03-19T03:17:41.978Z,11.90
2023-03-19T03:20:30.077Z,12.75
2023-03-19T03:23:18.356Z,12.98
2023-03-19T03:26:06.818Z,13.60
2023-03-19T03:28:54.701Z,13.75
2023-03-19T03:31:42.184Z,14.40
2023-03-19T03:34:30.934Z,14.57
2023-03-19T03:37:18.518Z,14.85
2023-03-19T03:40:08.439Z,15.00
2023-03-19T03:42:56.697Z,15.13
2023-03-19T03:45:46.372Z,15.68
2023-03-19T03:48:34.111Z,15.85
2023-03-19T03:51:24.117Z,15.70
2023-03-19T03:54:11.112Z,16.17
2023-03-19T03:57:00.214Z,16.55
2023-03-19T03:59:48.630Z,16.83
2023-03-19T04:02:35.862Z,17.40
2023-03-19T04:05:23.184Z,17.73
2023-03-19T04:08:13.424Z,18.83
2023-03-19T04:11:00.998Z,19.60
2023-03-19T04:13:48.644Z,19.33
2023-03-19T04:16:35.826Z,18.95
2023-03-19T04:19:23.097Z,19.95
2023-03-19T04:22:10.914Z,20.08
2023-03-19T04:24:59.523Z,21.05
2023-03-19T04:27:47.191Z,20.70
2023-03-19T04:30:35.485Z,20.70
2023-03-19T04:33:23.448Z,21.08
2023-03-19T04:36:13.878Z,21.17
2023-03-19T04:39:01.988Z,21.05
2023-03-19T04:41:50.803Z,21.45
2023-03-19T04:44:58.379Z,21.73
2023-03-19T04:47:45.813Z,20.98
2023-03-19T04:50:33.396Z,20.95
2023-03-19T04:53:21.499Z,21.10
2023-03-19T04:56:09.223Z,20.70
2023-03-19T04:58:58.088Z,21.52
2023-03-19T05:01:45.596Z,21.05
2023-03-19T05:04:32.779Z,21.30
2023-03-19T05:07:26.473Z,21.60
2023-03-19T05:10:14.010Z,23.70
2023-03-19T05:13:01.145Z,21.77
2023-03-19T05:15:50.210Z,22.30
2023-03-19T05:18:40.073Z,21.67
2023-03-19T05:21:28.961Z,25.38
2023-03-19T05:24:16.507Z,24.58
2023-03-19T05:27:04.771Z,22.90
2023-03-19T05:30:18.408Z,22.92
2023-03-19T05:33:16.270Z,21.95
2023-03-19T05:36:05.754Z,21.73
2023-03-19T05:39:08.218Z,23.13
2023-03-19T05:41:57.978Z,22.75
2023-03-19T05:44:49.002Z,24.00
2023-03-19T05:47:39.287Z,21.80
2023-03-19T05:50:28.061Z,21.05
2023-03-19T05:53:47.824Z,20.77
2023-03-19T05:56:55.541Z,23.00
2023-03-19T05:59:57.005Z,22.00
2023-03-19T06:02:53.305Z,22.75
2023-03-19T06:05:42.656Z,23.45
2023-03-19T06:08:40.966Z,25.13
2023-03-19T06:11:43.009Z,24.40
2023-03-19T06:14:53.093Z,22.33
2023-03-19T06:17:58.970Z,23.27
2023-03-19T06:20:48.294Z,20.88
2023-03-19T06:23:37.206Z,19.38
2023-03-19T06:26:26.451Z,19.33
2023-03-19T06:29:16.968Z,19.02
2023-03-19T06:32:09.810Z,17.02
2023-03-19T06:35:00.512Z,16.30
2023-03-19T06:37:49.057Z,16.13
2023-03-19T06:40:37.072Z,15.48
2023-03-19T06:43:25.265Z,14.98
2023-03-19T06:46:13.153Z,15.30
2023-03-19T06:49:00.877Z,14.98
2023-03-19T06:51:47.945Z,17.10
2023-03-19T06:54:38.457Z,14.97
2023-03-19T06:57:26.382Z,15.43
2023-03-19T07:00:14.861Z,16.33
2023-03-19T07:03:02.569Z,16.38
2023-03-19T07:05:51.852Z,18.60
2023-03-19T07:08:39.874Z,16.25
2023-03-19T07:11:28.994Z,14.50
2023-03-19T07:14:16.161Z,17.30
2023-03-19T07:17:03.489Z,14.77
2023-03-19T07:19:51.204Z,15.95
2023-03-19T07:22:39.159Z,19.33
2023-03-19T07:25:27.315Z,19.73
2023-03-19T07:28:16.635Z,21.65
2023-03-19T07:31:04.682Z,24.58
2023-03-19T07:33:52.499Z,24.77
2023-03-19T07:36:39.483Z,25.70
2023-03-19T07:39:26.649Z,26.30
2023-03-19T07:42:13.851Z,25.30
2023-03-19T07:45:05.241Z,26.60
2023-03-19T07:47:53.082Z,29.65
2023-03-19T07:50:41.022Z,30.57
2023-03-19T07:53:28.520Z,28.27
2023-03-19T07:56:16.369Z,27.93
2023-03-19T07:59:03.895Z,26.25
2023-03-19T08:01:53.064Z,32.10
2023-03-19T08:04:41.716Z,28.87
2023-03-19T08:07:29.859Z,30.75
2023-03-19T08:10:18.633Z,32.40
2023-03-19T08:13:06.846Z,31.25
2023-03-19T08:15:56.752Z,29.88
2023-03-19T08:18:45.837Z,26.97
2023-03-19T08:21:34.874Z,24.25
2023-03-19T08:24:22.278Z,23.63
2023-03-19T08:27:10.157Z,21.75
2023-03-19T08:29:57.461Z,21.90
2023-03-19T08:32:46.164Z,22.27
2023-03-19T08:35:34.506Z,20.05
2023-03-19T08:38:22.610Z,18.25
2023-03-19T08:41:11.265Z,17.45
2023-03-19T08:43:58.968Z,17.70
2023-03-19T08:46:46.838Z,16.60
2023-03-19T08:49:35.123Z,15.35
2023-03-19T08:52:25.578Z,16.73
2023-03-19T08:55:13.341Z,15.38
2023-03-19T08:58:00.659Z,12.70
2023-03-19T09:00:49.018Z,14.52
2023-03-19T09:03:36.205Z,11.63
2023-03-19T09:06:24.044Z,14.63
2023-03-19T09:09:12.704Z,16.23
2023-03-19T09:12:00.942Z,13.52
2023-03-19T09:14:48.574Z,12.88
2023-03-19T09:17:36.212Z,12.77
2023-03-19T09:20:24.138Z,12.93
2023-03-19T09:23:11.776Z,12.60
2023-03-19T09:26:00.338Z,12.60
2023-03-19T09:28:48.267Z,13.40
2023-03-19T09:31:36.357Z,13.07
2023-03-19T09:34:23.444Z,14.50
2023-03-19T09:37:11.682Z,12.18
2023-03-19T09:39:59.324Z,13.90
2023-03-19T09:42:57.179Z,10.32
2023-03-19T09:45:46.157Z,11.13
2023-03-19T09:48:40.631Z,9.82
2023-03-19T09:51:34.304Z,10.70
2023-03-19T09:54:31.055Z,11.48
2023-03-19T09:57:18.790Z,10.57
2023-03-19T10:00:22.282Z,11.93
2023-03-19T10:03:25.591Z,9.90
2023-03-19T10:06:29.437Z,9.75
2023-03-19T10:09:32.390Z,10.15
2023-03-19T10:12:33.754Z,10.77
2023-03-19T10:15:28.991Z,10.02
2023-03-19T10:18:20.810Z,9.65
2023-03-19T10:21:12.871Z,11.20
2023-03-19T10:24:05.162Z,10.35
2023-03-19T10:26:59.880Z,11.18
2023-03-19T10:29:47.588Z,10.02
2023-03-19T10:32:43.271Z,9.47
2023-03-19T10:35:39.450Z,8.88
2023-03-19T10:38:28.817Z,9.13
2023-03-19T10:41:31.838Z,9.55
2023-03-19T10:44:30.874Z,10.10
2023-03-19T10:47:20.187Z,9.23
2023-03-19T10:50:18.160Z,9.57
2023-03-19T10:53:09.159Z,11.73
2023-03-19T10:55:58.880Z,10.60
2023-03-19T10:58:59.378Z,10.20
2023-03-19T11:01:46.484Z,9.57
2023-03-19T11:04:33.947Z,9.27
2023-03-19T11:07:25.545Z,8.80
2023-03-19T11:10:17.510Z,6.72
2023-03-19T11:13:08.600Z,10.63
2023-03-19T11:16:00.852Z,7.33
2023-03-19T11:18:50.614Z,8.55
2023-03-19T11:21:38.147Z,7.15
2023-03-19T11:24:28.128Z,5.67
2023-03-19T11:27:15.955Z,9.25
2023-03-19T11:30:05.345Z,6.43
2023-03-19T11:33:09.965Z,6.55
2023-03-19T11:36:06.881Z,8.55
2023-03-19T11:39:09.550Z,9.70
2023-03-19T11:42:45.258Z,8.40
2023-03-19T11:45:42.291Z,12.38
2023-03-19T11:48:42.046Z,12.73
2023-03-19T11:51:36.261Z,11.40
2023-03-19T11:54:28.885Z,12.63
2023-03-19T11:57:26.628Z,11.52
2023-03-19T12:00:31.248Z,11.20
2023-03-19T12:03:59.304Z,11.43
2023-03-19T12:06:55.728Z,10.60
2023-03-19T12:09:49.542Z,10.02
2023-03-19T12:12:44.044Z,10.18
2023-03-19T12:15:39.617Z,8.63
2023-03-19T12:18:49.421Z,11.05
2023-03-19T12:21:48.941Z,10.18
2023-03-19T12:24:52.753Z,9.63
2023-03-19T12:27:45.657Z,8.85
2023-03-19T12:30:37.583Z,8.10
2023-03-19T12:33:46.651Z,7.15
2023-03-19T12:36:42.394Z,8.95
2023-03-19T12:39:36.148Z,6.57
2023-03-19T12:42:30.335Z,10.80
2023-03-19T12:45:28.205Z,12.70
2023-03-19T12:48:23.005Z,11.35
2023-03-19T12:51:15.551Z,12.35
2023-03-19T12:54:07.894Z,13.23
2023-03-19T12:57:01.282Z,12.07
2023-03-19T12:59:56.757Z,12.07
2023-03-19T13:02:51.198Z,12.10
2023-03-19T13:05:44.228Z,11.98
2023-03-19T13:08:36.393Z,13.68
2023-03-19T13:11:38.131Z,11.75
2023-03-19T13:14:34.259Z,11.05
2023-03-19T13:17:27.419Z,11.18
2023-03-19T13:20:25.093Z,9.68
2023-03-19T13:23:15.990Z,10.55
2023-03-19T13:26:08.111Z,8.02
2023-03-19T13:29:01.843Z,9.18
2023-03-19T13:31:50.086Z,8.60
2023-03-19T13:34:39.845Z,9.47
2023-03-19T13:37:27.976Z,7.47
2023-03-19T13:40:40.605Z,6.28
2023-03-19T13:43:55.740Z,6.90
2023-03-19T13:46:46.271Z,7.13
2023-03-19T13:49:36.016Z,6.75
2023-03-19T13:52:50.623Z,8.40
2023-03-19T13:55:53.809Z,9.05
2023-03-19T13:58:53.223Z,8.25
2023-03-19T14:01:45.144Z,8.30
2023-03-19T14:04:36.571Z,8.25
2023-03-19T14:07:27.798Z,7.07
2023-03-19T14:10:20.755Z,6.97
2023-03-19T14:13:15.537Z,6.18
2023-03-19T14:16:08.577Z,6.20
2023-03-19T14:19:02.314Z,5.65
2023-03-19T14:22:11.448Z,5.55
2023-03-19T14:25:12.883Z,6.32
2023-03-19T14:28:03.479Z,7.32
2023-03-19T14:30:51.194Z,7.55
2023-03-19T14:33:45.730Z,9.15
2023-03-19T14:36:33.114Z,10.57
2023-03-19T14:39:24.659Z,10.47
2023-03-19T14:42:21.544Z,10.48
2023-03-19T14:45:31.893Z,10.25
2023-03-19T14:48:34.895Z,10.40
2023-03-19T14:51:37.938Z,10.45
2023-03-19T14:54:32.350Z,9.23
2023-03-19T14:57:23.543Z,9.13
2023-03-19T15:00:17.538Z,8.20
2023-03-19T15:03:05.590Z,7.80
2023-03-19T15:05:58.732Z,7.33
2023-03-19T15:08:49.428Z,7.75
2023-03-19T15:12:15.623Z,6.93
2023-03-19T15:15:31.873Z,7.55
2023-03-19T15:18:20.884Z,7.38
2023-03-19T15:21:08.484Z,7.90
2023-03-19T15:23:56.493Z,8.70
2023-03-19T15:26:44.753Z,8.13
2023-03-19T15:29:33.097Z,8.73
2023-03-19T15:32:52.135Z,8.95
2023-03-19T15:35:43.606Z,8.55
2023-03-19T15:38:36.642Z,8.27
2023-03-19T15:41:26.779Z,9.10
2023-03-19T15:44:20.727Z,9.00
2023-03-19T15:47:13.165Z,8.27
2023-03-19T15:50:07.826Z,8.05
2023-03-19T15:52:58.691Z,7.63
2023-03-19T15:55:48.757Z,6.00
2023-03-19T15:58:41.121Z,5.20
2023-03-19T16:01:29.433Z,6.07
2023-03-19T16:04:21.024Z,5.72
2023-03-19T16:07:24.173Z,5.50
2023-03-19T16:10:33.797Z,5.35
2023-03-19T16:13:29.505Z,4.60
2023-03-19T16:16:21.616Z,6.32
2023-03-19T16:19:31.434Z,5.15
2023-03-19T16:22:24.117Z,5.55
2023-03-19T16:25:18.816Z,6.65
2023-03-19T16:28:07.831Z,5.80
2023-03-19T16:30:55.109Z,6.00
2023-03-19T16:33:43.219Z,7.03
2023-03-19T16:36:33.613Z,7.30
2023-03-19T16:39:36.988Z,6.37
2023-03-19T16:42:39.411Z,7.50
2023-03-19T16:45:28.946Z,8.15
2023-03-19T16:48:17.183Z,8.83
2023-03-19T16:51:05.639Z,8.93
2023-03-19T16:53:53.278Z,8.90
2023-03-19T16:56:42.324Z,9.15
2023-03-19T16:59:31.986Z,8.85
2023-03-19T17:02:19.950Z,8.50
2023-03-19T17:05:13.929Z,9.18
2023-03-19T17:08:01.285Z,9.20
2023-03-19T17:10:50.921Z,11.70
2023-03-19T17:13:43.701Z,12.48
2023-03-19T17:16:31.584Z,13.57
2023-03-19T17:19:22.178Z,13.82
2023-03-19T17:22:11.789Z,11.20
2023-03-19T17:24:59.539Z,11.65
2023-03-19T17:27:47.613Z,11.77
2023-03-19T17:30:36.925Z,10.70
2023-03-19T17:33:27.228Z,10.82
2023-03-19T17:36:14.351Z,11.98
2023-03-19T17:39:01.850Z,12.65
2023-03-19T17:41:52.058Z,13.63
2023-03-19T17:44:39.190Z,14.40
2023-03-19T17:47:27.818Z,14.73
2023-03-19T17:50:19.312Z,15.63
2023-03-19T17:53:10.632Z,14.40
2023-03-19T17:55:57.895Z,13.20
2023-03-19T17:58:45.062Z,10.07
2023-03-19T18:01:31.986Z,8.50
2023-03-19T18:04:22.483Z,7.45
2023-03-19T18:07:11.664Z,8.63
2023-03-19T18:09:58.759Z,8.18
2023-03-19T18:12:45.813Z,7.68
2023-03-19T18:15:34.263Z,6.53
2023-03-19T18:18:23.265Z,7.33
2023-03-19T18:21:14.394Z,7.75
2023-03-19T18:24:01.547Z,6.97
2023-03-19T18:26:48.559Z,6.20
2023-03-19T18:29:38.718Z,6.33
2023-03-19T18:32:32.042Z,6.80
2023-03-19T18:35:20.838Z,7.75
2023-03-19T18:38:16.243Z,6.88
2023-03-19T18:41:03.498Z,6.77
2023-03-19T18:43:50.619Z,6.70
2023-03-19T18:46:39.489Z,7.95
2023-03-19T18:49:28.503Z,7.10
2023-03-19T18:52:19.331Z,7.70
2023-03-19T18:55:10.098Z,7.57
2023-03-19T18:58:00.819Z,7.15
2023-03-19T19:00:48.862Z,7.80
2023-03-19T19:03:37.003Z,7.13
2023-03-19T19:06:40.050Z,7.88
2023-03-19T19:09:32.473Z,8.52
2023-03-19T19:12:21.329Z,8.45
2023-03-19T19:15:18.007Z,9.27
2023-03-19T19:18:14.627Z,8.40
2023-03-19T19:21:02.123Z,8.57
2023-03-19T19:23:49.057Z,8.80
2023-03-19T19:26:37.285Z,10.60
2023-03-19T19:29:28.348Z,10.90
2023-03-19T19:32:25.765Z,10.05
2023-03-19T19:35:18.333Z,10.33
2023-03-19T19:38:06.707Z,9.63
2023-03-19T19:40:58.235Z,9.82
2023-03-19T19:43:46.817Z,10.77
2023-03-19T19:46:35.239Z,8.90
2023-03-19T19:49:23.274Z,8.50
2023-03-19T19:52:15.641Z,9.38
2023-03-19T19:55:02.433Z,8.02
2023-03-19T19:57:49.672Z,7.17
2023-03-19T20:00:37.122Z,7.22
2023-03-19T20:03:27.857Z,7.13
2023-03-19T20:06:15.597Z,6.83
2023-03-19T20:09:03.002Z,7.68
2023-03-19T20:11:50.411Z,7.50
2023-03-19T20:14:44.389Z,7.43
2023-03-19T20:17:31.226Z,7.72
2023-03-19T20:20:22.352Z,8.20
2023-03-19T20:23:10.248Z,8.65
2023-03-19T20:25:58.292Z,8.70
2023-03-19T20:28:46.810Z,8.47
2023-03-19T20:31:36.403Z,8.75
2023-03-19T20:34:38.558Z,9.15
2023-03-19T20:37:28.738Z,9.93
2023-03-19T20:40:16.714Z,10.77
2023-03-19T20:43:03.827Z,8.85
2023-03-19T20:45:51.512Z,9.75
2023-03-19T20:48:38.720Z,9.65
2023-03-19T20:51:31.487Z,9.95
2023-03-19T20:54:20.115Z,10.00
2023-03-19T20:57:06.976Z,11.10
2023-03-19T20:59:54.417Z,10.50
2023-03-19T21:02:41.801Z,10.77
2023-03-19T21:05:34.938Z,12.18
2023-03-19T21:08:30.594Z,13.32
2023-03-19T21:11:20.672Z,13.82
2023-03-19T21:14:08.009Z,13.50
2023-03-19T21:16:55.490Z,12.88
2023-03-19T21:19:42.773Z,13.80
2023-03-19T21:22:31.874Z,13.75
2023-03-19T21:25:22.789Z,13.45
2023-03-19T21:28:19.522Z,14.40
2023-03-19T21:31:07.571Z,13.48
2023-03-19T21:33:57.230Z,13.13
2023-03-19T21:36:46.018Z,12.52
2023-03-19T21:39:33.216Z,12.47
2023-03-19T21:42:23.568Z,13.02
2023-03-19T21:45:18.678Z,13.23
2023-03-19T21:48:26.126Z,13.82
2023-03-19T21:51:16.418Z,12.57
2023-03-19T21:54:04.753Z,11.88
2023-03-19T21:56:52.198Z,13.98
2023-03-19T21:59:40.276Z,13.43
2023-03-19T22:02:41.784Z,13.02
2023-03-19T22:05:29.858Z,11.77
2023-03-19T22:08:18.139Z,12.90
2023-03-19T22:11:16.707Z,11.88
2023-03-19T22:14:07.303Z,13.30
2023-03-19T22:16:56.653Z,13.10
2023-03-19T22:19:45.642Z,14.45
2023-03-19T22:22:32.961Z,14.17
2023-03-19T22:25:23.091Z,13.30
2023-03-19T22:28:17.575Z,15.10
2023-03-19T22:31:06.099Z,14.70
2023-03-19T22:33:54.045Z,14.10
2023-03-19T22:36:43.204Z,14.73
2023-03-19T22:39:30.628Z,13.53
2023-03-19T22:42:18.553Z,13.93
2023-03-19T22:45:07.823Z,13.80
2023-03-19T22:47:57.052Z,14.57
2023-03-19T22:50:45.362Z,13.27
2023-03-19T22:53:36.571Z,13.85
2023-03-19T22:56:23.830Z,14.02
2023-03-19T22:59:11.104Z,14.27
2023-03-19T23:02:00.383Z,12.88
2023-03-19T23:04:47.604Z,14.30
2023-03-19T23:07:34.606Z,13.40
2023-03-19T23:10:25.671Z,12.85
2023-03-19T23:13:13.980Z,12.90
2023-03-19T23:16:01.536Z,14.10
2023-03-19T23:18:49.977Z,14.82
2023-03-19T23:21:37.883Z,15.95
2023-03-19T23:24:25.450Z,13.55
2023-03-19T23:27:24.228Z,14.10
2023-03-19T23:30:22.696Z,13.98
2023-03-19T23:33:12.952Z,12.75
2023-03-19T23:36:00.629Z,12.68
2023-03-19T23:38:48.151Z,13.25
2023-03-19T23:41:44.894Z,12.10
2023-03-19T23:44:34.057Z,12.30
2023-03-19T23:47:21.073Z,12.00
2023-03-19T23:50:13.960Z,11.60
2023-03-19T23:53:01.949Z,12.45
2023-03-19T23:55:52.465Z,11.82
2023-03-19T23:58:43.226Z,12.20
